Time;durP1;ratioP1;P1;durP2;ratioP2;P2;SDS_P1;SDS_P2;PMS_P1;PMS_P2;Temp;Humidity;BMP_temperature;BMP_pressure;BME280_temperature;BME280_humidity;BME280_pressure;Samples;Min_cycle;Max_cycle;Signal;HPM_P1;HPM_P2
2022/02/26 00:02:10;;;;;;;2.00;1.40;;;17.40;62.30;;;;;;10371082;28;20218;-62
2022/02/26 00:07:32;;;;;;;4.10;1.47;;;17.40;62.40;;;;;;10357379;28;20222;-62
2022/02/26 00:12:55;;;;;;;4.47;1.40;;;17.40;62.30;;;;;;10366257;28;20205;-63
2022/02/26 00:18:18;;;;;;;3.20;1.53;;;17.40;62.20;;;;;;10403113;28;20225;-63
2022/02/26 00:23:43;;;;;;;2.27;1.47;;;17.40;62.30;;;;;;10407253;28;20213;-62
2022/02/26 00:29:05;;;;;;;4.50;1.43;;;17.40;62.30;;;;;;10368844;28;20680;-62
2022/02/26 00:34:29;;;;;;;5.40;1.80;;;17.40;62.30;;;;;;10409889;28;20545;-63
2022/02/26 00:39:51;;;;;;;2.10;1.17;;;17.40;62.90;;;;;;10381849;28;20222;-62
2022/02/26 00:45:13;;;;;;;4.87;1.67;;;17.40;62.30;;;;;;10386889;28;20210;-63
2022/02/26 00:50:37;;;;;;;4.33;1.63;;;17.40;62.30;;;;;;10379253;28;20190;-62
2022/02/26 00:55:59;;;;;;;3.27;1.30;;;17.40;62.30;;;;;;10383698;22;20245;-62
2022/02/26 01:01:21;;;;;;;4.30;1.80;;;17.30;62.30;;;;;;10377187;28;20189;-60
2022/02/26 01:06:45;;;;;;;2.13;1.37;;;17.40;62.30;;;;;;10377482;28;20233;-61
2022/02/26 01:12:09;;;;;;;4.17;1.50;;;17.40;62.40;;;;;;10371683;28;20201;-63
2022/02/26 01:17:32;;;;;;;5.77;1.90;;;17.40;62.40;;;;;;10394741;28;20222;-61
2022/02/26 01:22:55;;;;;;;3.43;1.10;;;17.40;62.30;;;;;;10345425;28;20214;-62
2022/02/26 01:28:17;;;;;;;4.97;1.53;;;17.40;62.40;;;;;;10390540;28;20225;-60
2022/02/26 01:33:40;;;;;;;3.00;1.40;;;17.30;62.90;;;;;;10409066;28;20197;-62
2022/02/26 01:39:05;;;;;;;3.33;1.10;;;17.30;62.40;;;;;;10380419;28;20241;-62
2022/02/26 01:44:28;;;;;;;4.20;1.53;;;17.40;62.40;;;;;;10370133;28;20693;-63
2022/02/26 01:49:51;;;;;;;3.27;1.60;;;17.30;62.30;;;;;;10381588;28;20210;-62
2022/02/26 01:55:14;;;;;;;4.77;1.57;;;17.40;62.40;;;;;;10332164;28;20194;-63
2022/02/26 02:00:37;;;;;;;4.53;1.40;;;17.30;62.40;;;;;;10409220;28;20673;-62
2022/02/26 02:06:01;;;;;;;4.83;1.53;;;17.30;62.40;;;;;;10397199;28;20609;-62
2022/02/26 02:11:24;;;;;;;3.77;1.60;;;17.40;62.40;;;;;;10385247;28;20194;-63
2022/02/26 02:16:47;;;;;;;4.50;1.73;;;17.30;62.40;;;;;;10414904;28;20680;-62
2022/02/26 02:22:10;;;;;;;3.37;1.60;;;17.30;62.30;;;;;;10414583;28;20328;-63
2022/02/26 02:27:32;;;;;;;3.70;1.37;;;17.30;62.40;;;;;;10383489;28;20222;-62
2022/02/26 02:32:56;;;;;;;3.53;1.30;;;17.40;62.50;;;;;;10375021;28;20676;-63
2022/02/26 02:38:19;;;;;;;3.10;1.40;;;17.40;62.40;;;;;;10379463;28;20229;-62
2022/02/26 02:43:42;;;;;;;3.57;1.47;;;17.30;62.40;;;;;;10376414;28;20225;-61
2022/02/26 02:49:04;;;;;;;2.40;1.00;;;17.30;62.40;;;;;;10411101;28;20688;-61
2022/02/26 02:54:28;;;;;;;1.93;1.00;;;17.30;62.50;;;;;;10379942;28;20216;-63
2022/02/26 02:59:50;;;;;;;3.87;1.33;;;17.30;62.40;;;;;;10376939;28;20222;-61
2022/02/26 03:05:14;;;;;;;3.60;1.53;;;17.30;62.40;;;;;;10371751;28;20225;-62
2022/02/26 03:10:38;;;;;;;4.07;1.47;;;17.30;62.40;;;;;;10388663;28;20206;-61
2022/02/26 03:16:00;;;;;;;3.63;1.63;;;17.30;62.50;;;;;;10373108;28;20210;-63
2022/02/26 03:21:23;;;;;;;3.60;1.50;;;17.30;62.40;;;;;;10371315;28;20198;-62
2022/02/26 03:26:53;;;;;;;4.07;1.50;;;17.30;62.40;;;;;;10374325;28;20218;-63
2022/02/26 03:32:15;;;;;;;3.53;1.20;;;17.30;62.50;;;;;;10378791;28;20232;-62
2022/02/26 03:37:37;;;;;;;1.80;1.20;;;17.30;62.40;;;;;;10402259;28;20601;-62
2022/02/26 03:43:01;;;;;;;5.30;1.50;;;17.30;62.40;;;;;;10370953;28;20215;-62
2022/02/26 03:48:23;;;;;;;3.10;1.50;;;17.30;62.40;;;;;;10389204;28;20244;-61
2022/02/26 03:53:45;;;;;;;2.57;1.27;;;17.30;62.50;;;;;;10372083;28;20190;-62
2022/02/26 03:59:09;;;;;;;3.70;1.13;;;17.30;62.50;;;;;;10371871;28;20223;-62
2022/02/26 04:04:32;;;;;;;4.93;1.60;;;17.30;62.40;;;;;;10398773;28;20214;-60
2022/02/26 04:09:54;;;;;;;3.67;1.30;;;17.30;62.40;;;;;;10379408;28;20234;-62
2022/02/26 04:15:17;;;;;;;3.03;1.23;;;17.30;62.30;;;;;;10371841;28;20197;-62
2022/02/26 04:20:39;;;;;;;4.67;1.57;;;17.30;62.40;;;;;;10403003;28;20657;-63
2022/02/26 04:26:02;;;;;;;5.13;1.47;;;17.30;62.40;;;;;;10408245;28;20221;-63
2022/02/26 04:31:25;;;;;;;3.87;1.40;;;17.30;62.40;;;;;;10409400;28;20269;-62
2022/02/26 04:36:48;;;;;;;2.83;1.27;;;17.30;62.40;;;;;;10404407;28;20221;-61
2022/02/26 04:42:10;;;;;;;3.37;1.30;;;17.30;62.40;;;;;;10388058;28;20687;-63
2022/02/26 04:47:34;;;;;;;2.80;1.23;;;17.30;62.40;;;;;;10380423;28;20210;-63
2022/02/26 04:52:57;;;;;;;4.40;1.43;;;17.30;62.50;;;;;;10375880;28;20553;-63
2022/02/26 04:58:19;;;;;;;5.37;1.90;;;17.30;62.40;;;;;;10374862;28;20225;-62
2022/02/26 05:03:43;;;;;;;4.97;1.97;;;17.30;62.40;;;;;;10370522;28;20225;-61
2022/02/26 05:09:05;;;;;;;4.10;1.23;;;17.30;62.40;;;;;;10370494;28;20221;-61
2022/02/26 05:14:28;;;;;;;4.33;1.23;;;17.30;62.40;;;;;;10389279;28;20649;-62
2022/02/26 05:19:51;;;;;;;3.43;1.13;;;17.30;62.40;;;;;;10370350;28;20685;-60
2022/02/26 05:25:13;;;;;;;2.40;1.30;;;17.30;62.40;;;;;;10329543;28;20223;-62
2022/02/26 05:30:36;;;;;;;4.87;1.77;;;17.30;62.40;;;;;;10364362;28;20194;-62
2022/02/26 05:35:59;;;;;;;3.67;1.50;;;17.30;62.30;;;;;;10394072;28;20673;-62
2022/02/26 05:41:22;;;;;;;3.97;1.40;;;17.30;62.30;;;;;;10375695;28;20696;-63
2022/02/26 05:46:44;;;;;;;4.53;1.90;;;17.30;62.20;;;;;;10383367;28;20214;-62
2022/02/26 05:52:08;;;;;;;3.77;1.60;;;17.30;62.20;;;;;;10391483;28;20605;-61
2022/02/26 05:57:30;;;;;;;3.73;1.47;;;17.30;62.10;;;;;;10377289;28;20226;-60
2022/02/26 06:02:52;;;;;;;2.63;1.33;;;17.30;62.10;;;;;;10390888;28;20213;-59
2022/02/26 06:08:16;;;;;;;3.03;1.10;;;17.40;62.20;;;;;;10396523;28;20576;-61
2022/02/26 06:13:38;;;;;;;4.83;1.60;;;17.30;62.10;;;;;;10392969;28;20188;-61
2022/02/26 06:19:00;;;;;;;3.00;1.40;;;17.30;62.10;;;;;;10390995;28;20589;-60
2022/02/26 06:24:24;;;;;;;4.77;1.23;;;17.40;62.20;;;;;;10394198;28;20586;-60
2022/02/26 06:29:46;;;;;;;4.33;1.10;;;17.40;62.20;;;;;;10391981;28;20232;-60
2022/02/26 06:35:10;;;;;;;3.63;1.40;;;17.40;62.20;;;;;;10392580;28;20201;-61
2022/02/26 06:40:34;;;;;;;3.50;1.60;;;17.30;62.20;;;;;;10390913;28;20576;-61
2022/02/26 06:45:56;;;;;;;4.57;1.50;;;17.30;62.30;;;;;;10413275;28;20605;-60
2022/02/26 06:51:18;;;;;;;3.67;1.50;;;17.40;62.30;;;;;;10391460;28;20190;-61
2022/02/26 06:56:42;;;;;;;4.47;1.53;;;17.30;62.20;;;;;;10392534;28;20222;-60
2022/02/26 07:02:04;;;;;;;3.53;1.50;;;17.30;62.10;;;;;;10393242;28;20190;-61
2022/02/26 07:07:27;;;;;;;3.43;1.40;;;17.30;62.10;;;;;;10406555;22;20214;-63
2022/02/26 07:12:50;;;;;;;5.10;1.87;;;17.40;62.20;;;;;;10450114;28;20193;-61
2022/02/26 07:18:12;;;;;;;3.37;1.20;;;17.30;62.10;;;;;;10452704;28;20671;-61
2022/02/26 07:23:34;;;;;;;3.87;1.20;;;17.40;62.20;;;;;;10453058;28;20209;-59
2022/02/26 07:28:59;;;;;;;3.47;1.30;;;17.30;62.20;;;;;;10451870;28;20571;-62
2022/02/26 07:34:21;;;;;;;5.13;1.57;;;17.30;62.20;;;;;;10453316;28;20203;-61
2022/02/26 07:39:43;;;;;;;5.17;1.77;;;17.30;62.20;;;;;;10454203;28;20224;-61
2022/02/26 07:45:07;;;;;;;3.57;1.43;;;17.30;62.20;;;;;;10451286;28;20240;-61
2022/02/26 07:50:29;;;;;;;3.33;1.47;;;17.30;62.30;;;;;;10453552;28;20220;-61
2022/02/26 07:55:53;;;;;;;4.33;1.20;;;17.30;62.30;;;;;;10452745;28;20189;-61
2022/02/26 08:01:17;;;;;;;8.73;1.30;;;17.40;62.50;;;;;;10451165;28;20232;-61
2022/02/26 08:06:39;;;;;;;5.67;2.17;;;17.40;62.40;;;;;;10424902;28;20208;-61
2022/02/26 08:12:02;;;;;;;6.93;1.60;;;17.30;62.20;;;;;;10451347;28;20219;-61
2022/02/26 08:17:25;;;;;;;2.87;1.37;;;17.30;62.20;;;;;;10449092;28;20189;-60
2022/02/26 08:22:47;;;;;;;5.03;1.53;;;17.40;62.30;;;;;;10451600;28;20791;-61
2022/02/26 08:28:10;;;;;;;5.17;1.50;;;17.40;62.30;;;;;;10452217;28;20224;-61
2022/02/26 08:33:33;;;;;;;3.37;1.50;;;17.40;62.30;;;;;;10451315;28;20694;-61
2022/02/26 08:38:55;;;;;;;3.80;1.40;;;17.30;62.40;;;;;;10451604;28;20561;-60
2022/02/26 08:44:17;;;;;;;3.53;1.43;;;17.30;62.40;;;;;;10451914;28;20213;-61
2022/02/26 08:49:41;;;;;;;3.13;1.33;;;17.30;62.40;;;;;;10451200;28;20215;-61
2022/02/26 08:55:04;;;;;;;4.63;1.90;;;17.30;62.40;;;;;;10451808;28;20189;-61
2022/02/26 09:00:26;;;;;;;2.53;1.20;;;17.30;62.50;;;;;;10450178;28;20216;-60
2022/02/26 09:05:50;;;;;;;4.73;1.63;;;17.30;62.40;;;;;;10411047;28;20841;-61
2022/02/26 09:11:12;;;;;;;2.53;1.10;;;17.30;62.50;;;;;;10414077;28;20221;-61
2022/02/26 09:16:35;;;;;;;4.20;1.67;;;17.30;62.50;;;;;;10427452;28;20192;-61
2022/02/26 09:22:00;;;;;;;4.67;1.60;;;17.30;62.50;;;;;;10459702;28;20212;-61
2022/02/26 09:27:22;;;;;;;3.93;1.40;;;17.30;62.60;;;;;;10458266;28;20213;-60
2022/02/26 09:32:47;;;;;;;3.90;1.57;;;17.30;62.60;;;;;;10459443;28;20204;-61
2022/02/26 09:38:10;;;;;;;2.90;1.43;;;17.40;62.60;;;;;;10456742;28;20292;-61
2022/02/26 09:43:33;;;;;;;2.27;1.23;;;17.40;62.50;;;;;;10457101;28;20200;-61
2022/02/26 09:48:55;;;;;;;4.80;1.60;;;17.40;62.50;;;;;;10455573;28;20228;-61
2022/02/26 09:54:19;;;;;;;3.43;1.40;;;17.30;62.50;;;;;;10417579;28;20205;-61
2022/02/26 09:59:43;;;;;;;3.80;1.40;;;17.30;62.60;;;;;;10422919;28;20208;-59
2022/02/26 10:05:09;;;;;;;3.57;1.50;;;17.40;62.70;;;;;;10458173;28;20213;-61
2022/02/26 10:10:33;;;;;;;3.83;1.93;;;17.40;62.70;;;;;;10456748;28;20221;-61
2022/02/26 10:15:55;;;;;;;4.70;1.67;;;17.30;62.60;;;;;;10457697;28;20197;-61
2022/02/26 10:21:28;;;;;;;4.07;1.67;;;17.40;62.70;;;;;;10454419;28;20213;-61
2022/02/26 10:26:55;;;;;;;3.83;1.50;;;17.40;62.50;;;;;;10451560;28;20221;-61
2022/02/26 10:32:21;;;;;;;3.93;1.77;;;17.40;62.70;;;;;;10453617;28;20284;-60
2022/02/26 10:37:43;;;;;;;3.80;1.70;;;17.30;62.70;;;;;;10456068;28;20236;-61
2022/02/26 10:43:07;;;;;;;4.70;1.90;;;17.30;62.60;;;;;;10453116;28;20561;-61
2022/02/26 10:48:40;;;;;;;4.23;1.77;;;17.40;62.60;;;;;;10453576;28;20217;-61
2022/02/26 10:54:05;;;;;;;4.60;1.93;;;17.40;62.50;;;;;;10413936;28;20190;-61
2022/02/26 10:59:31;;;;;;;4.00;1.67;;;17.30;62.60;;;;;;10415120;28;20214;-61
2022/02/26 11:04:55;;;;;;;5.20;1.97;;;17.30;62.50;;;;;;10451735;28;20710;-61
2022/02/26 11:10:18;;;;;;;4.53;1.80;;;17.30;62.50;;;;;;10454208;28;20232;-61
2022/02/26 11:15:43;;;;;;;4.37;1.67;;;17.30;62.50;;;;;;10456154;28;20189;-61
2022/02/26 11:21:06;;;;;;;4.23;1.60;;;17.30;62.70;;;;;;10455837;28;20298;-61
2022/02/26 11:26:29;;;;;;;3.27;1.50;;;17.30;62.60;;;;;;10454127;28;20683;-61
2022/02/26 11:32:04;;;;;;;4.07;1.70;;;17.30;62.70;;;;;;10452643;28;20591;-61
2022/02/26 11:37:37;;;;;;;3.33;1.20;;;17.30;62.30;;;;;;10454764;28;20197;-61
2022/02/26 11:42:59;;;;;;;6.10;1.60;;;17.30;62.40;;;;;;10446321;28;20668;-61
2022/02/26 11:48:23;;;;;;;3.63;1.80;;;17.30;62.40;;;;;;10452134;28;20212;-61
2022/02/26 11:53:47;;;;;;;4.77;1.97;;;17.30;62.50;;;;;;10449064;28;20681;-64
2022/02/26 11:59:09;;;;;;;9.47;2.87;;;17.30;61.00;;;;;;10450335;28;20699;-64
2022/02/26 12:04:45;;;;;;;7.57;2.40;;;17.20;55.00;;;;;;10448181;28;20216;-63
2022/02/26 12:10:09;;;;;;;12.10;2.77;;;17.10;51.40;;;;;;10453509;28;20228;-64
2022/02/26 12:15:33;;;;;;;5.70;2.23;;;17.00;50.90;;;;;;10451690;28;20279;-63
2022/02/26 12:21:00;;;;;;;6.77;2.67;;;17.00;55.00;;;;;;10451159;28;20247;-64
2022/02/26 12:26:47;;;;;;;5.73;2.17;;;17.10;57.10;;;;;;10451383;28;20209;-64
2022/02/26 12:32:14;;;;;;;7.23;2.20;;;17.20;57.80;;;;;;10451810;28;20216;-64
2022/02/26 12:37:39;;;;;;;6.63;1.67;;;17.30;58.50;;;;;;10452532;28;20205;-64
2022/02/26 12:43:06;;;;;;;4.57;2.23;;;17.30;59.00;;;;;;10449451;28;20208;-64
2022/02/26 12:48:29;;;;;;;5.47;2.40;;;17.40;59.50;;;;;;10450296;28;20691;-64
2022/02/26 12:53:52;;;;;;;4.50;2.07;;;17.40;59.30;;;;;;10447325;28;20193;-63
2022/02/26 12:59:16;;;;;;;5.40;2.20;;;17.40;59.40;;;;;;10447414;28;20224;-64
2022/02/26 13:04:41;;;;;;;4.80;2.20;;;17.40;59.60;;;;;;10448060;28;20225;-64
2022/02/26 13:10:09;;;;;;;5.10;2.40;;;17.40;59.90;;;;;;10449144;28;20274;-64
2022/02/26 13:15:31;;;;;;;5.83;2.97;;;17.40;60.10;;;;;;10448887;28;20189;-64
2022/02/26 13:20:53;;;;;;;3.10;1.83;;;17.40;60.30;;;;;;10449862;28;20571;-64
2022/02/26 13:26:27;;;;;;;4.47;2.07;;;17.40;60.60;;;;;;10451125;28;20228;-64
2022/02/26 13:31:52;;;;;;;5.27;2.10;;;17.50;60.70;;;;;;10451258;28;20714;-63
2022/02/26 13:37:14;;;;;;;4.73;2.17;;;17.40;60.80;;;;;;10450298;28;20664;-63
2022/02/26 13:42:40;;;;;;;5.20;2.20;;;17.40;60.90;;;;;;10442056;28;20209;-64
2022/02/26 13:48:14;;;;;;;5.30;2.10;;;17.40;61.00;;;;;;10450495;28;20221;-64
2022/02/26 13:53:37;;;;;;;4.00;2.30;;;17.50;60.90;;;;;;10450116;28;20287;-63
2022/02/26 13:59:01;;;;;;;4.87;2.00;;;17.40;61.60;;;;;;10454144;28;20692;-64
2022/02/26 14:04:26;;;;;;;3.17;1.93;;;17.40;61.10;;;;;;10457136;28;20288;-63
2022/02/26 14:09:48;;;;;;;4.83;2.47;;;17.40;61.10;;;;;;10456612;28;20221;-63
2022/02/26 14:15:14;;;;;;;5.07;2.20;;;17.40;61.70;;;;;;10487006;28;20223;-63
2022/02/26 14:20:36;;;;;;;4.23;2.23;;;17.50;61.20;;;;;;10469373;28;20620;-65
2022/02/26 14:26:00;;;;;;;4.70;2.10;;;17.40;61.20;;;;;;10476318;28;20219;-64
2022/02/26 14:31:28;;;;;;;5.63;2.53;;;17.40;61.30;;;;;;10497049;28;20212;-64
2022/02/26 14:36:51;;;;;;;5.37;2.70;;;17.40;61.40;;;;;;10474421;28;20189;-63
2022/02/26 14:42:14;;;;;;;6.33;1.97;;;17.40;61.40;;;;;;10452457;28;20228;-64
2022/02/26 14:47:37;;;;;;;4.27;2.10;;;17.40;61.40;;;;;;10458966;28;20592;-63
2022/02/26 14:53:00;;;;;;;2.90;1.77;;;17.40;61.40;;;;;;10447697;28;20189;-64
2022/02/26 14:58:23;;;;;;;3.53;1.80;;;17.40;61.40;;;;;;10455128;28;20213;-64
2022/02/26 15:03:46;;;;;;;2.53;1.73;;;17.40;61.40;;;;;;10454330;28;20664;-64
2022/02/26 15:09:09;;;;;;;5.57;2.13;;;17.40;61.40;;;;;;10454629;28;20746;-64
2022/02/26 15:14:31;;;;;;;2.67;1.73;;;17.40;61.20;;;;;;10454056;28;20718;-63
2022/02/26 15:19:55;;;;;;;4.17;2.00;;;17.40;61.30;;;;;;10454624;28;20734;-63
2022/02/26 15:25:17;;;;;;;2.57;1.57;;;17.40;61.50;;;;;;10423568;28;20220;-64
2022/02/26 15:30:39;;;;;;;2.93;1.40;;;17.40;61.30;;;;;;10453706;28;20217;-64
2022/02/26 15:36:03;;;;;;;4.10;1.73;;;17.40;61.40;;;;;;10454613;28;20220;-64
2022/02/26 15:41:25;;;;;;;3.57;1.63;;;17.40;61.50;;;;;;10454294;28;20209;-64
2022/02/26 15:46:47;;;;;;;2.73;1.47;;;17.40;61.50;;;;;;10453599;28;20216;-63
2022/02/26 15:52:11;;;;;;;4.03;1.80;;;17.40;61.50;;;;;;10453828;28;20706;-64
2022/02/26 15:57:33;;;;;;;2.17;1.40;;;17.50;61.50;;;;;;10453166;28;20193;-64
2022/02/26 16:02:56;;;;;;;2.27;1.30;;;17.40;61.90;;;;;;10447065;28;20193;-63
2022/02/26 16:08:19;;;;;;;2.33;1.33;;;17.40;61.30;;;;;;10453184;28;20355;-64
2022/02/26 16:13:41;;;;;;;3.30;1.90;;;17.40;61.20;;;;;;10452268;28;20580;-63
2022/02/26 16:19:03;;;;;;;1.50;1.13;;;17.40;60.80;;;;;;10449482;28;20228;-63
2022/02/26 16:24:29;;;;;;;3.80;1.50;;;17.40;60.80;;;;;;10448797;28;20682;-61
2022/02/26 16:29:51;;;;;;;3.00;1.50;;;17.40;60.50;;;;;;10451031;28;20220;-61
2022/02/26 16:35:13;;;;;;;1.87;1.50;;;17.40;59.40;;;;;;10450174;28;20188;-61
2022/02/26 16:40:37;;;;;;;3.87;1.80;;;17.30;59.10;;;;;;10451983;28;20209;-62
2022/02/26 16:46:01;;;;;;;2.33;1.13;;;17.30;59.50;;;;;;10450656;28;20213;-62
2022/02/26 16:51:23;;;;;;;2.47;1.20;;;17.30;59.70;;;;;;10449656;28;20212;-62
2022/02/26 16:56:46;;;;;;;1.63;1.10;;;17.30;59.90;;;;;;10449561;28;20200;-62
2022/02/26 17:02:16;;;;;;;2.70;1.43;;;17.30;60.10;;;;;;10448341;28;20212;-62
2022/02/26 17:07:39;;;;;;;2.57;1.40;;;17.20;60.10;;;;;;10449995;28;20294;-62
2022/02/26 17:13:03;;;;;;;1.97;1.20;;;17.30;60.30;;;;;;10451938;28;20193;-62
2022/02/26 17:18:25;;;;;;;3.40;1.17;;;17.20;60.20;;;;;;10451956;28;20213;-62
2022/02/26 17:23:47;;;;;;;2.83;1.30;;;17.20;60.30;;;;;;10447337;28;20197;-62
2022/02/26 17:29:11;;;;;;;2.20;1.10;;;17.20;60.90;;;;;;10451644;28;20228;-62
2022/02/26 17:34:34;;;;;;;2.60;1.20;;;17.20;60.40;;;;;;10459613;28;20555;-60
2022/02/26 17:39:56;;;;;;;2.87;1.07;;;17.20;60.40;;;;;;10459473;28;20220;-61
2022/02/26 17:45:20;;;;;;;1.93;1.20;;;17.30;60.30;;;;;;10458009;28;20217;-62
2022/02/26 17:50:42;;;;;;;2.00;1.20;;;17.20;60.40;;;;;;10458910;28;20224;-61
2022/02/26 17:56:06;;;;;;;2.30;1.07;;;17.20;60.40;;;;;;10457331;28;20185;-60
2022/02/26 18:01:30;;;;;;;2.90;1.60;;;17.20;60.40;;;;;;10454845;28;20419;-61
2022/02/26 18:06:52;;;;;;;3.27;1.10;;;17.50;60.20;;;;;;10456742;28;20213;-61
2022/02/26 18:12:15;;;;;;;2.10;1.37;;;17.30;60.00;;;;;;10455923;28;20220;-62
2022/02/26 18:17:38;;;;;;;1.33;1.00;;;17.30;60.80;;;;;;10458249;28;20221;-62
2022/02/26 18:23:02;;;;;;;2.17;1.17;;;17.30;61.20;;;;;;10457908;28;20193;-62
2022/02/26 18:28:24;;;;;;;2.63;1.20;;;17.30;61.40;;;;;;10456954;28;20591;-62
2022/02/26 18:33:48;;;;;;;1.27;0.87;;;17.40;61.50;;;;;;10455145;28;20334;-60
2022/02/26 18:39:10;;;;;;;1.63;1.07;;;17.40;61.80;;;;;;10456127;28;20275;-62
2022/02/26 18:44:33;;;;;;;2.27;1.10;;;17.40;61.80;;;;;;10455641;28;20200;-60
2022/02/26 18:49:56;;;;;;;3.70;1.60;;;17.40;61.70;;;;;;10456693;28;20211;-59
2022/02/26 18:55:19;;;;;;;3.73;1.27;;;17.40;57.80;;;;;;10456329;28;20611;-60
2022/02/26 19:00:42;;;;;;;2.93;1.30;;;17.30;58.80;;;;;;10431643;28;20224;-61
2022/02/26 19:06:05;;;;;;;2.10;1.17;;;17.30;59.60;;;;;;10450564;28;20213;-61
2022/02/26 19:11:27;;;;;;;1.70;1.20;;;17.30;59.80;;;;;;10450746;28;20353;-61
2022/02/26 19:16:49;;;;;;;1.67;1.20;;;17.20;59.90;;;;;;10449226;28;20190;-61
2022/02/26 19:22:13;;;;;;;3.63;1.30;;;17.20;60.00;;;;;;10448374;28;20255;-61
2022/02/26 19:27:35;;;;;;;2.00;1.40;;;17.20;60.10;;;;;;10449427;28;21934;-61
2022/02/26 19:32:59;;;;;;;2.80;1.80;;;17.20;60.30;;;;;;10447441;28;20205;-62
2022/02/26 19:38:23;;;;;;;3.30;1.83;;;17.20;60.10;;;;;;10445928;28;20213;-62
2022/02/26 19:43:46;;;;;;;2.90;1.80;;;17.20;60.10;;;;;;10444863;28;20286;-61
2022/02/26 19:49:08;;;;;;;2.30;1.83;;;17.20;60.10;;;;;;10446757;28;20239;-61
2022/02/26 19:54:32;;;;;;;2.53;1.83;;;17.20;60.30;;;;;;10444198;28;20583;-61
2022/02/26 19:59:54;;;;;;;2.43;1.80;;;17.20;60.20;;;;;;10445606;28;20217;-61
2022/02/26 20:05:16;;;;;;;2.37;1.70;;;17.20;60.30;;;;;;10446869;28;20291;-61
2022/02/26 20:10:40;;;;;;;2.40;2.03;;;17.20;60.30;;;;;;10444991;28;20220;-61
2022/02/26 20:16:03;;;;;;;3.13;2.10;;;17.20;60.30;;;;;;10446938;28;20189;-61
2022/02/26 20:21:27;;;;;;;4.07;2.20;;;17.20;60.30;;;;;;10445607;28;21123;-60
2022/02/26 20:26:51;;;;;;;3.60;2.43;;;17.10;60.30;;;;;;10442827;28;20220;-61
2022/02/26 20:32:13;;;;;;;4.20;2.37;;;17.20;60.30;;;;;;10443609;28;20301;-61
2022/02/26 20:37:36;;;;;;;3.60;2.10;;;17.20;60.30;;;;;;10449232;28;20715;-61
2022/02/26 20:43:01;;;;;;;3.10;2.40;;;17.10;60.30;;;;;;10451643;28;20196;-61
2022/02/26 20:48:24;;;;;;;2.87;1.93;;;17.10;60.30;;;;;;10452943;28;20286;-61
2022/02/26 20:53:46;;;;;;;2.30;1.90;;;17.20;60.30;;;;;;10450422;28;20200;-61
2022/02/26 20:59:09;;;;;;;2.40;2.07;;;17.20;60.30;;;;;;10451725;28;20231;-61
2022/02/26 21:04:32;;;;;;;3.20;2.10;;;17.10;60.20;;;;;;10450672;28;20204;-61
2022/02/26 21:09:54;;;;;;;2.73;1.83;;;17.10;60.20;;;;;;10460454;28;20217;-61
2022/02/26 21:15:17;;;;;;;3.40;2.00;;;17.20;60.30;;;;;;10460010;28;20196;-61
2022/02/26 21:20:40;;;;;;;2.40;1.80;;;17.20;60.90;;;;;;10460358;28;20224;-62
2022/02/26 21:26:02;;;;;;;4.13;2.63;;;17.20;60.30;;;;;;10458810;28;20604;-60
2022/02/26 21:31:25;;;;;;;2.73;1.93;;;17.20;60.30;;;;;;10456829;28;20247;-61
2022/02/26 21:36:48;;;;;;;2.87;1.90;;;17.20;60.30;;;;;;10459016;28;20189;-61
2022/02/26 21:42:10;;;;;;;2.87;1.90;;;17.20;60.20;;;;;;10459531;28;20211;-61
2022/02/26 21:47:34;;;;;;;2.30;1.80;;;17.20;60.30;;;;;;10458907;28;20213;-61
2022/02/26 21:52:56;;;;;;;2.60;1.53;;;17.10;60.30;;;;;;10450557;28;20192;-61
2022/02/26 21:58:18;;;;;;;2.23;1.60;;;17.10;60.30;;;;;;10457898;28;20707;-60
2022/02/26 22:03:42;;;;;;;2.13;1.60;;;17.10;60.30;;;;;;10456786;28;20204;-61
2022/02/26 22:09:04;;;;;;;1.83;1.67;;;17.10;60.40;;;;;;10457558;28;20683;-61
2022/02/26 22:14:26;;;;;;;1.83;1.63;;;17.10;60.30;;;;;;10458952;28;20595;-59
2022/02/26 22:19:50;;;;;;;1.83;1.60;;;17.10;60.30;;;;;;10456016;28;20687;-61
2022/02/26 22:25:13;;;;;;;2.00;1.40;;;17.10;60.40;;;;;;10456944;28;20212;-60
2022/02/26 22:30:37;;;;;;;2.77;1.90;;;17.10;60.40;;;;;;10456367;28;20220;-61
2022/02/26 22:36:00;;;;;;;1.97;1.57;;;17.10;60.30;;;;;;10452859;28;20280;-60
2022/02/26 22:41:23;;;;;;;2.00;1.50;;;17.10;60.30;;;;;;10455985;28;20213;-61
2022/02/26 22:46:45;;;;;;;1.77;1.40;;;17.10;60.40;;;;;;10455717;28;20588;-60
2022/02/26 22:52:09;;;;;;;1.67;1.33;;;17.10;60.30;;;;;;10456233;28;20711;-60
2022/02/26 22:57:31;;;;;;;2.13;1.47;;;17.10;60.30;;;;;;10455444;28;20200;-61
2022/02/26 23:02:54;;;;;;;1.67;1.37;;;17.10;60.30;;;;;;10454715;28;20196;-60
2022/02/26 23:08:17;;;;;;;1.87;1.23;;;17.10;60.30;;;;;;10456591;28;20235;-61
2022/02/26 23:13:40;;;;;;;1.53;1.40;;;17.10;60.30;;;;;;10456355;28;20200;-61
2022/02/26 23:19:02;;;;;;;1.60;1.33;;;17.10;60.30;;;;;;10455970;28;20584;-60
2022/02/26 23:24:26;;;;;;;1.83;1.57;;;17.00;60.20;;;;;;10455301;28;20572;-61
2022/02/26 23:29:48;;;;;;;2.03;1.70;;;17.10;60.30;;;;;;10454538;28;20703;-61
2022/02/26 23:35:11;;;;;;;2.60;1.60;;;17.10;60.30;;;;;;10455060;28;20220;-61
2022/02/26 23:40:34;;;;;;;1.50;1.27;;;17.10;60.30;;;;;;10454271;28;20213;-61
2022/02/26 23:45:57;;;;;;;1.73;1.40;;;17.10;60.30;;;;;;10453610;28;20653;-59
2022/02/26 23:51:19;;;;;;;1.83;1.50;;;17.00;60.30;;;;;;10454071;28;20270;-60
2022/02/26 23:56:42;;;;;;;2.23;1.63;;;17.00;60.20;;;;;;10454698;28;20197;-61
